sensor_id;sensor_type;location;lat;lon;timestamp;temperature;humidity
12839;DHT22;6486;51.034;5.262;2023-08-12T00:01:48;24.10;77.40
12839;DHT22;6486;51.034;5.262;2023-08-12T00:04:14;24.10;77.50
12839;DHT22;6486;51.034;5.262;2023-08-12T00:06:42;24.10;77.50
12839;DHT22;6486;51.034;5.262;2023-08-12T00:09:08;24.10;77.60
12839;DHT22;6486;51.034;5.262;2023-08-12T00:11:35;24.10;77.60
12839;DHT22;6486;51.034;5.262;2023-08-12T00:14:01;24.10;78.30
12839;DHT22;6486;51.034;5.262;2023-08-12T00:16:27;24.10;77.70
12839;DHT22;6486;51.034;5.262;2023-08-12T00:18:53;24.10;77.80
12839;DHT22;6486;51.034;5.262;2023-08-12T00:21:19;24.10;77.90
12839;DHT22;6486;51.034;5.262;2023-08-12T00:23:45;24.00;77.90
12839;DHT22;6486;51.034;5.262;2023-08-12T00:26:13;24.00;77.90
12839;DHT22;6486;51.034;5.262;2023-08-12T00:28:38;24.10;78.20
12839;DHT22;6486;51.034;5.262;2023-08-12T00:31:04;24.00;78.20
12839;DHT22;6486;51.034;5.262;2023-08-12T00:33:30;24.00;78.30
12839;DHT22;6486;51.034;5.262;2023-08-12T00:35:59;24.00;78.30
12839;DHT22;6486;51.034;5.262;2023-08-12T00:38:24;24.00;78.40
12839;DHT22;6486;51.034;5.262;2023-08-12T00:40:50;24.00;78.50
12839;DHT22;6486;51.034;5.262;2023-08-12T00:43:16;24.00;78.60
12839;DHT22;6486;51.034;5.262;2023-08-12T00:45:42;23.90;78.50
12839;DHT22;6486;51.034;5.262;2023-08-12T00:48:08;23.90;78.70
12839;DHT22;6486;51.034;5.262;2023-08-12T00:50:36;23.90;78.70
12839;DHT22;6486;51.034;5.262;2023-08-12T00:53:03;23.90;78.90
12839;DHT22;6486;51.034;5.262;2023-08-12T00:55:32;23.90;79.00
12839;DHT22;6486;51.034;5.262;2023-08-12T00:57:58;23.90;79.00
12839;DHT22;6486;51.034;5.262;2023-08-12T01:00:24;23.90;79.10
12839;DHT22;6486;51.034;5.262;2023-08-12T01:02:50;23.90;79.10
12839;DHT22;6486;51.034;5.262;2023-08-12T01:05:18;23.90;79.20
12839;DHT22;6486;51.034;5.262;2023-08-12T01:07:44;23.80;79.10
12839;DHT22;6486;51.034;5.262;2023-08-12T01:10:10;23.80;79.20
12839;DHT22;6486;51.034;5.262;2023-08-12T01:12:53;23.70;79.40
12839;DHT22;6486;51.034;5.262;2023-08-12T01:15:24;23.60;79.50
12839;DHT22;6486;51.034;5.262;2023-08-12T01:17:53;23.50;79.60
12839;DHT22;6486;51.034;5.262;2023-08-12T01:20:23;23.40;79.70
12839;DHT22;6486;51.034;5.262;2023-08-12T01:22:57;23.40;79.80
12839;DHT22;6486;51.034;5.262;2023-08-12T01:25:25;23.30;79.80
12839;DHT22;6486;51.034;5.262;2023-08-12T01:27:50;23.20;79.70
12839;DHT22;6486;51.034;5.262;2023-08-12T01:30:17;23.10;79.60
12839;DHT22;6486;51.034;5.262;2023-08-12T01:32:52;23.00;79.50
12839;DHT22;6486;51.034;5.262;2023-08-12T01:38:02;23.10;79.60
12839;DHT22;6486;51.034;5.262;2023-08-12T01:40:29;23.10;79.60
12839;DHT22;6486;51.034;5.262;2023-08-12T01:42:56;23.10;79.60
12839;DHT22;6486;51.034;5.262;2023-08-12T01:45:23;23.10;79.60
12839;DHT22;6486;51.034;5.262;2023-08-12T01:47:48;23.10;79.60
12839;DHT22;6486;51.034;5.262;2023-08-12T01:50:17;23.10;79.60
12839;DHT22;6486;51.034;5.262;2023-08-12T01:52:42;23.10;79.60
12839;DHT22;6486;51.034;5.262;2023-08-12T01:55:08;23.10;79.60
12839;DHT22;6486;51.034;5.262;2023-08-12T01:57:34;23.10;79.60
12839;DHT22;6486;51.034;5.262;2023-08-12T02:00:01;23.10;79.60
12839;DHT22;6486;51.034;5.262;2023-08-12T02:02:27;23.10;79.60
12839;DHT22;6486;51.034;5.262;2023-08-12T02:04:53;23.00;79.50
12839;DHT22;6486;51.034;5.262;2023-08-12T02:07:18;23.00;79.60
12839;DHT22;6486;51.034;5.262;2023-08-12T02:09:44;23.00;79.60
12839;DHT22;6486;51.034;5.262;2023-08-12T02:12:09;23.00;79.60
12839;DHT22;6486;51.034;5.262;2023-08-12T02:14:35;23.00;79.60
12839;DHT22;6486;51.034;5.262;2023-08-12T02:17:02;23.00;79.60
12839;DHT22;6486;51.034;5.262;2023-08-12T02:19:31;23.00;79.50
12839;DHT22;6486;51.034;5.262;2023-08-12T02:21:58;23.00;79.60
12839;DHT22;6486;51.034;5.262;2023-08-12T02:24:23;22.90;79.70
12839;DHT22;6486;51.034;5.262;2023-08-12T02:26:49;22.90;80.00
12839;DHT22;6486;51.034;5.262;2023-08-12T02:29:15;22.90;80.00
12839;DHT22;6486;51.034;5.262;2023-08-12T02:31:40;22.90;80.20
12839;DHT22;6486;51.034;5.262;2023-08-12T02:34:06;22.90;80.20
12839;DHT22;6486;51.034;5.262;2023-08-12T02:36:32;22.90;80.30
12839;DHT22;6486;51.034;5.262;2023-08-12T02:38:58;22.90;80.30
12839;DHT22;6486;51.034;5.262;2023-08-12T02:41:23;22.90;80.40
12839;DHT22;6486;51.034;5.262;2023-08-12T02:43:49;23.00;80.50
12839;DHT22;6486;51.034;5.262;2023-08-12T02:46:14;22.90;80.50
12839;DHT22;6486;51.034;5.262;2023-08-12T02:48:41;23.00;80.60
12839;DHT22;6486;51.034;5.262;2023-08-12T02:51:07;23.00;80.60
12839;DHT22;6486;51.034;5.262;2023-08-12T02:53:32;23.00;80.70
12839;DHT22;6486;51.034;5.262;2023-08-12T02:55:58;23.00;80.70
12839;DHT22;6486;51.034;5.262;2023-08-12T02:58:24;23.00;80.80
12839;DHT22;6486;51.034;5.262;2023-08-12T03:00:49;23.00;80.80
12839;DHT22;6486;51.034;5.262;2023-08-12T03:03:15;23.00;80.90
12839;DHT22;6486;51.034;5.262;2023-08-12T03:05:40;23.00;81.00
12839;DHT22;6486;51.034;5.262;2023-08-12T03:08:06;23.00;81.00
12839;DHT22;6486;51.034;5.262;2023-08-12T03:10:34;23.00;81.20
12839;DHT22;6486;51.034;5.262;2023-08-12T03:12:59;23.00;81.20
12839;DHT22;6486;51.034;5.262;2023-08-12T03:15:25;23.00;81.20
12839;DHT22;6486;51.034;5.262;2023-08-12T03:17:51;23.00;81.20
12839;DHT22;6486;51.034;5.262;2023-08-12T03:20:16;22.90;81.30
12839;DHT22;6486;51.034;5.262;2023-08-12T03:22:42;22.90;81.40
12839;DHT22;6486;51.034;5.262;2023-08-12T03:25:08;23.00;81.50
12839;DHT22;6486;51.034;5.262;2023-08-12T03:27:34;22.90;81.50
12839;DHT22;6486;51.034;5.262;2023-08-12T03:30:00;22.90;81.60
12839;DHT22;6486;51.034;5.262;2023-08-12T03:32:26;22.90;81.60
12839;DHT22;6486;51.034;5.262;2023-08-12T03:34:51;22.90;81.60
12839;DHT22;6486;51.034;5.262;2023-08-12T03:37:18;22.90;81.60
12839;DHT22;6486;51.034;5.262;2023-08-12T03:39:44;22.90;81.70
12839;DHT22;6486;51.034;5.262;2023-08-12T03:42:10;22.90;81.60
12839;DHT22;6486;51.034;5.262;2023-08-12T03:44:35;22.90;81.70
12839;DHT22;6486;51.034;5.262;2023-08-12T03:47:01;22.90;81.70
12839;DHT22;6486;51.034;5.262;2023-08-12T03:49:27;22.90;81.70
12839;DHT22;6486;51.034;5.262;2023-08-12T03:51:52;22.90;81.70
12839;DHT22;6486;51.034;5.262;2023-08-12T03:54:18;22.90;81.70
12839;DHT22;6486;51.034;5.262;2023-08-12T03:56:44;22.90;81.70
12839;DHT22;6486;51.034;5.262;2023-08-12T03:59:09;22.80;81.70
12839;DHT22;6486;51.034;5.262;2023-08-12T04:01:36;22.80;82.00
12839;DHT22;6486;51.034;5.262;2023-08-12T04:04:02;22.80;82.20
12839;DHT22;6486;51.034;5.262;2023-08-12T04:06:27;22.80;82.40
12839;DHT22;6486;51.034;5.262;2023-08-12T04:08:53;22.80;82.40
12839;DHT22;6486;51.034;5.262;2023-08-12T04:11:18;22.80;82.40
12839;DHT22;6486;51.034;5.262;2023-08-12T04:13:44;22.80;82.50
12839;DHT22;6486;51.034;5.262;2023-08-12T04:16:10;22.80;82.50
12839;DHT22;6486;51.034;5.262;2023-08-12T04:18:35;22.80;82.70
12839;DHT22;6486;51.034;5.262;2023-08-12T04:21:02;22.70;82.80
12839;DHT22;6486;51.034;5.262;2023-08-12T04:23:27;22.70;83.10
12839;DHT22;6486;51.034;5.262;2023-08-12T04:25:53;22.70;83.20
12839;DHT22;6486;51.034;5.262;2023-08-12T04:28:21;22.60;83.30
12839;DHT22;6486;51.034;5.262;2023-08-12T04:30:48;22.60;83.50
12839;DHT22;6486;51.034;5.262;2023-08-12T04:33:14;22.60;83.60
12839;DHT22;6486;51.034;5.262;2023-08-12T04:35:40;22.60;83.70
12839;DHT22;6486;51.034;5.262;2023-08-12T04:38:06;22.60;83.80
12839;DHT22;6486;51.034;5.262;2023-08-12T04:40:32;22.60;83.70
12839;DHT22;6486;51.034;5.262;2023-08-12T04:43:01;22.70;84.00
12839;DHT22;6486;51.034;5.262;2023-08-12T04:45:27;22.70;84.00
12839;DHT22;6486;51.034;5.262;2023-08-12T04:47:53;22.70;84.00
12839;DHT22;6486;51.034;5.262;2023-08-12T04:50:19;22.70;84.10
12839;DHT22;6486;51.034;5.262;2023-08-12T04:52:45;22.70;84.20
12839;DHT22;6486;51.034;5.262;2023-08-12T04:55:12;22.70;84.30
12839;DHT22;6486;51.034;5.262;2023-08-12T04:57:37;22.70;84.30
12839;DHT22;6486;51.034;5.262;2023-08-12T05:00:04;22.70;84.50
12839;DHT22;6486;51.034;5.262;2023-08-12T05:02:30;22.70;84.50
12839;DHT22;6486;51.034;5.262;2023-08-12T05:04:56;22.70;84.50
12839;DHT22;6486;51.034;5.262;2023-08-12T05:07:21;22.70;84.50
12839;DHT22;6486;51.034;5.262;2023-08-12T05:09:47;22.80;84.70
12839;DHT22;6486;51.034;5.262;2023-08-12T05:12:13;22.80;84.70
12839;DHT22;6486;51.034;5.262;2023-08-12T05:14:39;22.70;84.70
12839;DHT22;6486;51.034;5.262;2023-08-12T05:17:05;22.80;84.90
12839;DHT22;6486;51.034;5.262;2023-08-12T05:19:32;22.80;85.00
12839;DHT22;6486;51.034;5.262;2023-08-12T05:21:58;22.80;85.20
12839;DHT22;6486;51.034;5.262;2023-08-12T05:24:23;22.80;85.30
12839;DHT22;6486;51.034;5.262;2023-08-12T05:26:49;22.80;85.40
12839;DHT22;6486;51.034;5.262;2023-08-12T05:29:15;22.80;86.10
12839;DHT22;6486;51.034;5.262;2023-08-12T05:31:40;22.70;86.00
12839;DHT22;6486;51.034;5.262;2023-08-12T05:34:06;22.70;86.20
12839;DHT22;6486;51.034;5.262;2023-08-12T05:36:32;22.70;86.30
12839;DHT22;6486;51.034;5.262;2023-08-12T05:38:58;22.60;86.60
12839;DHT22;6486;51.034;5.262;2023-08-12T05:41:24;22.60;86.80
12839;DHT22;6486;51.034;5.262;2023-08-12T05:43:49;22.50;86.80
12839;DHT22;6486;51.034;5.262;2023-08-12T05:46:15;22.60;86.90
12839;DHT22;6486;51.034;5.262;2023-08-12T05:48:41;22.60;86.90
12839;DHT22;6486;51.034;5.262;2023-08-12T05:51:07;22.60;86.90
12839;DHT22;6486;51.034;5.262;2023-08-12T05:53:32;22.60;86.90
12839;DHT22;6486;51.034;5.262;2023-08-12T05:55:58;22.60;87.00
12839;DHT22;6486;51.034;5.262;2023-08-12T05:58:24;22.70;87.00
12839;DHT22;6486;51.034;5.262;2023-08-12T06:00:50;22.60;86.90
12839;DHT22;6486;51.034;5.262;2023-08-12T06:03:16;22.70;87.10
12839;DHT22;6486;51.034;5.262;2023-08-12T06:05:45;22.70;87.10
12839;DHT22;6486;51.034;5.262;2023-08-12T06:08:11;22.60;87.10
12839;DHT22;6486;51.034;5.262;2023-08-12T06:10:36;22.60;87.10
12839;DHT22;6486;51.034;5.262;2023-08-12T06:13:02;22.60;87.20
12839;DHT22;6486;51.034;5.262;2023-08-12T06:15:28;22.60;87.30
12839;DHT22;6486;51.034;5.262;2023-08-12T06:17:53;22.60;87.40
12839;DHT22;6486;51.034;5.262;2023-08-12T06:20:19;22.60;87.40
12839;DHT22;6486;51.034;5.262;2023-08-12T06:22:45;22.60;87.50
12839;DHT22;6486;51.034;5.262;2023-08-12T06:25:10;22.60;87.60
12839;DHT22;6486;51.034;5.262;2023-08-12T06:27:36;22.60;87.80
12839;DHT22;6486;51.034;5.262;2023-08-12T06:30:02;22.60;87.80
12839;DHT22;6486;51.034;5.262;2023-08-12T06:32:28;22.60;87.90
12839;DHT22;6486;51.034;5.262;2023-08-12T06:34:53;22.60;88.00
12839;DHT22;6486;51.034;5.262;2023-08-12T06:37:19;22.60;88.10
12839;DHT22;6486;51.034;5.262;2023-08-12T06:39:44;22.70;88.30
12839;DHT22;6486;51.034;5.262;2023-08-12T06:42:10;22.60;88.20
12839;DHT22;6486;51.034;5.262;2023-08-12T06:44:36;22.60;88.40
12839;DHT22;6486;51.034;5.262;2023-08-12T06:47:01;22.60;88.50
12839;DHT22;6486;51.034;5.262;2023-08-12T06:49:27;22.60;88.80
12839;DHT22;6486;51.034;5.262;2023-08-12T06:51:52;22.50;88.80
12839;DHT22;6486;51.034;5.262;2023-08-12T06:54:18;22.50;88.80
12839;DHT22;6486;51.034;5.262;2023-08-12T06:56:44;22.50;88.90
12839;DHT22;6486;51.034;5.262;2023-08-12T06:59:09;22.50;88.90
12839;DHT22;6486;51.034;5.262;2023-08-12T07:01:36;22.60;89.10
12839;DHT22;6486;51.034;5.262;2023-08-12T07:04:02;22.50;89.20
12839;DHT22;6486;51.034;5.262;2023-08-12T07:06:27;22.40;89.40
12839;DHT22;6486;51.034;5.262;2023-08-12T07:08:53;22.40;89.50
12839;DHT22;6486;51.034;5.262;2023-08-12T07:11:19;22.40;89.70
12839;DHT22;6486;51.034;5.262;2023-08-12T07:13:44;22.40;89.90
12839;DHT22;6486;51.034;5.262;2023-08-12T07:16:11;22.30;90.00
12839;DHT22;6486;51.034;5.262;2023-08-12T07:18:37;22.40;90.10
12839;DHT22;6486;51.034;5.262;2023-08-12T07:21:03;22.30;90.00
12839;DHT22;6486;51.034;5.262;2023-08-12T07:23:29;22.40;90.10
12839;DHT22;6486;51.034;5.262;2023-08-12T07:25:54;22.30;90.00
12839;DHT22;6486;51.034;5.262;2023-08-12T07:28:20;22.40;90.10
12839;DHT22;6486;51.034;5.262;2023-08-12T07:30:48;22.30;90.00
12839;DHT22;6486;51.034;5.262;2023-08-12T07:33:13;22.30;90.00
12839;DHT22;6486;51.034;5.262;2023-08-12T07:35:39;22.40;90.10
12839;DHT22;6486;51.034;5.262;2023-08-12T07:38:05;22.40;90.10
12839;DHT22;6486;51.034;5.262;2023-08-12T07:40:30;22.40;90.10
12839;DHT22;6486;51.034;5.262;2023-08-12T07:42:56;22.40;90.10
12839;DHT22;6486;51.034;5.262;2023-08-12T07:45:22;22.40;90.10
12839;DHT22;6486;51.034;5.262;2023-08-12T07:47:49;22.40;90.10
12839;DHT22;6486;51.034;5.262;2023-08-12T07:50:15;22.40;90.10
12839;DHT22;6486;51.034;5.262;2023-08-12T07:52:41;22.40;90.10
12839;DHT22;6486;51.034;5.262;2023-08-12T07:55:07;22.50;90.10
12839;DHT22;6486;51.034;5.262;2023-08-12T07:57:32;22.40;90.10
12839;DHT22;6486;51.034;5.262;2023-08-12T07:59:58;22.40;90.20
12839;DHT22;6486;51.034;5.262;2023-08-12T08:02:24;22.40;90.20
12839;DHT22;6486;51.034;5.262;2023-08-12T08:04:49;22.40;90.20
12839;DHT22;6486;51.034;5.262;2023-08-12T08:07:18;22.40;90.30
12839;DHT22;6486;51.034;5.262;2023-08-12T08:09:44;22.40;90.30
12839;DHT22;6486;51.034;5.262;2023-08-12T08:12:10;22.40;90.30
12839;DHT22;6486;51.034;5.262;2023-08-12T08:14:36;22.50;90.30
12839;DHT22;6486;51.034;5.262;2023-08-12T08:17:02;22.60;90.30
12839;DHT22;6486;51.034;5.262;2023-08-12T08:19:29;22.70;90.40
12839;DHT22;6486;51.034;5.262;2023-08-12T08:21:55;22.90;90.40
12839;DHT22;6486;51.034;5.262;2023-08-12T08:24:20;22.90;90.30
12839;DHT22;6486;51.034;5.262;2023-08-12T08:26:46;22.90;90.20
12839;DHT22;6486;51.034;5.262;2023-08-12T08:29:12;22.90;90.20
12839;DHT22;6486;51.034;5.262;2023-08-12T08:31:38;22.90;90.20
12839;DHT22;6486;51.034;5.262;2023-08-12T08:34:04;22.90;90.20
12839;DHT22;6486;51.034;5.262;2023-08-12T08:36:30;22.90;90.20
12839;DHT22;6486;51.034;5.262;2023-08-12T08:38:56;23.00;90.20
12839;DHT22;6486;51.034;5.262;2023-08-12T08:41:22;23.10;90.10
12839;DHT22;6486;51.034;5.262;2023-08-12T08:43:49;23.20;90.10
12839;DHT22;6486;51.034;5.262;2023-08-12T08:46:15;23.30;90.00
12839;DHT22;6486;51.034;5.262;2023-08-12T08:48:44;23.40;90.00
12839;DHT22;6486;51.034;5.262;2023-08-12T08:51:10;23.40;90.00
12839;DHT22;6486;51.034;5.262;2023-08-12T08:53:40;23.40;90.00
12839;DHT22;6486;51.034;5.262;2023-08-12T08:56:07;23.50;90.00
12839;DHT22;6486;51.034;5.262;2023-08-12T08:58:33;23.50;89.80
12839;DHT22;6486;51.034;5.262;2023-08-12T09:00:59;23.60;89.90
12839;DHT22;6486;51.034;5.262;2023-08-12T09:03:25;23.70;89.80
12839;DHT22;6486;51.034;5.262;2023-08-12T09:05:53;23.70;89.60
12839;DHT22;6486;51.034;5.262;2023-08-12T09:08:20;23.70;89.40
12839;DHT22;6486;51.034;5.262;2023-08-12T09:10:47;23.70;89.30
12839;DHT22;6486;51.034;5.262;2023-08-12T09:13:14;23.70;89.20
12839;DHT22;6486;51.034;5.262;2023-08-12T09:15:40;23.80;89.10
12839;DHT22;6486;51.034;5.262;2023-08-12T09:18:06;23.80;88.90
12839;DHT22;6486;51.034;5.262;2023-08-12T09:20:33;23.80;88.70
12839;DHT22;6486;51.034;5.262;2023-08-12T09:23:00;23.70;88.70
12839;DHT22;6486;51.034;5.262;2023-08-12T09:25:32;23.60;88.90
12839;DHT22;6486;51.034;5.262;2023-08-12T09:28:01;23.60;89.00
12839;DHT22;6486;51.034;5.262;2023-08-12T09:30:30;23.40;88.50
12839;DHT22;6486;51.034;5.262;2023-08-12T09:33:00;23.40;88.60
12839;DHT22;6486;51.034;5.262;2023-08-12T09:35:33;23.50;88.70
12839;DHT22;6486;51.034;5.262;2023-08-12T09:38:00;23.60;88.70
12839;DHT22;6486;51.034;5.262;2023-08-12T09:40:26;23.70;88.40
12839;DHT22;6486;51.034;5.262;2023-08-12T09:42:52;23.70;88.20
12839;DHT22;6486;51.034;5.262;2023-08-12T09:45:17;23.80;88.30
12839;DHT22;6486;51.034;5.262;2023-08-12T09:47:46;23.80;88.00
12839;DHT22;6486;51.034;5.262;2023-08-12T09:50:12;23.80;87.80
12839;DHT22;6486;51.034;5.262;2023-08-12T09:52:39;23.80;87.80
12839;DHT22;6486;51.034;5.262;2023-08-12T09:55:06;23.80;87.80
12839;DHT22;6486;51.034;5.262;2023-08-12T09:57:34;23.90;87.70
12839;DHT22;6486;51.034;5.262;2023-08-12T10:00:02;24.10;88.00
12839;DHT22;6486;51.034;5.262;2023-08-12T10:02:29;24.20;86.90
12839;DHT22;6486;51.034;5.262;2023-08-12T10:04:56;24.30;86.70
12839;DHT22;6486;51.034;5.262;2023-08-12T10:07:23;24.20;86.60
12839;DHT22;6486;51.034;5.262;2023-08-12T10:09:49;24.10;86.50
12839;DHT22;6486;51.034;5.262;2023-08-12T10:12:15;24.00;86.70
12839;DHT22;6486;51.034;5.262;2023-08-12T10:14:41;23.90;86.60
12839;DHT22;6486;51.034;5.262;2023-08-12T10:17:08;23.90;86.60
12839;DHT22;6486;51.034;5.262;2023-08-12T10:19:35;23.80;86.30
12839;DHT22;6486;51.034;5.262;2023-08-12T10:22:03;23.70;86.10
12839;DHT22;6486;51.034;5.262;2023-08-12T10:24:29;23.70;86.00
12839;DHT22;6486;51.034;5.262;2023-08-12T10:26:55;23.80;85.90
12839;DHT22;6486;51.034;5.262;2023-08-12T10:29:23;23.80;85.90
12839;DHT22;6486;51.034;5.262;2023-08-12T10:31:50;23.80;85.60
12839;DHT22;6486;51.034;5.262;2023-08-12T10:34:23;23.80;85.50
12839;DHT22;6486;51.034;5.262;2023-08-12T10:36:56;23.90;85.30
12839;DHT22;6486;51.034;5.262;2023-08-12T10:39:29;24.00;85.20
12839;DHT22;6486;51.034;5.262;2023-08-12T10:41:57;24.10;85.10
12839;DHT22;6486;51.034;5.262;2023-08-12T10:44:28;24.10;85.20
12839;DHT22;6486;51.034;5.262;2023-08-12T10:47:08;24.20;85.00
12839;DHT22;6486;51.034;5.262;2023-08-12T10:49:38;24.50;84.00
12839;DHT22;6486;51.034;5.262;2023-08-12T10:52:25;24.60;83.50
12839;DHT22;6486;51.034;5.262;2023-08-12T10:54:52;24.70;83.40
12839;DHT22;6486;51.034;5.262;2023-08-12T10:57:18;24.80;83.30
12839;DHT22;6486;51.034;5.262;2023-08-12T10:59:59;24.70;82.60
12839;DHT22;6486;51.034;5.262;2023-08-12T11:02:32;24.50;81.80
12839;DHT22;6486;51.034;5.262;2023-08-12T11:05:03;24.30;82.10
12839;DHT22;6486;51.034;5.262;2023-08-12T11:07:39;24.20;82.80
12839;DHT22;6486;51.034;5.262;2023-08-12T11:10:12;24.10;82.30
12839;DHT22;6486;51.034;5.262;2023-08-12T11:12:39;24.00;81.90
12839;DHT22;6486;51.034;5.262;2023-08-12T11:15:06;23.90;81.40
12839;DHT22;6486;51.034;5.262;2023-08-12T11:17:36;23.90;80.80
12839;DHT22;6486;51.034;5.262;2023-08-12T11:20:04;23.80;80.40
12839;DHT22;6486;51.034;5.262;2023-08-12T11:22:31;23.80;80.50
12839;DHT22;6486;51.034;5.262;2023-08-12T11:24:58;23.90;80.00
12839;DHT22;6486;51.034;5.262;2023-08-12T11:27:23;23.90;79.60
12839;DHT22;6486;51.034;5.262;2023-08-12T11:29:50;24.00;79.00
12839;DHT22;6486;51.034;5.262;2023-08-12T11:32:17;24.00;78.70
12839;DHT22;6486;51.034;5.262;2023-08-12T11:34:43;24.00;78.00
12839;DHT22;6486;51.034;5.262;2023-08-12T11:37:09;24.10;77.50
12839;DHT22;6486;51.034;5.262;2023-08-12T11:39:35;24.20;77.10
12839;DHT22;6486;51.034;5.262;2023-08-12T11:42:00;24.40;76.80
12839;DHT22;6486;51.034;5.262;2023-08-12T11:44:26;24.50;75.80
12839;DHT22;6486;51.034;5.262;2023-08-12T11:46:52;24.60;75.40
12839;DHT22;6486;51.034;5.262;2023-08-12T11:49:18;24.80;74.90
12839;DHT22;6486;51.034;5.262;2023-08-12T11:51:46;24.90;73.80
12839;DHT22;6486;51.034;5.262;2023-08-12T11:54:13;25.00;73.30
12839;DHT22;6486;51.034;5.262;2023-08-12T11:56:39;25.10;72.20
12839;DHT22;6486;51.034;5.262;2023-08-12T11:59:05;25.20;72.00
12839;DHT22;6486;51.034;5.262;2023-08-12T12:01:31;25.40;71.30
12839;DHT22;6486;51.034;5.262;2023-08-12T12:04:00;25.50;71.00
12839;DHT22;6486;51.034;5.262;2023-08-12T12:06:31;25.70;69.70
12839;DHT22;6486;51.034;5.262;2023-08-12T12:09:01;25.90;68.50
12839;DHT22;6486;51.034;5.262;2023-08-12T12:11:30;26.20;67.50
12839;DHT22;6486;51.034;5.262;2023-08-12T12:13:55;26.40;66.90
12839;DHT22;6486;51.034;5.262;2023-08-12T12:16:21;26.60;66.50
12839;DHT22;6486;51.034;5.262;2023-08-12T12:18:47;26.70;65.60
12839;DHT22;6486;51.034;5.262;2023-08-12T12:21:20;26.90;65.30
12839;DHT22;6486;51.034;5.262;2023-08-12T12:23:46;27.10;64.90
12839;DHT22;6486;51.034;5.262;2023-08-12T12:26:11;27.30;65.20
12839;DHT22;6486;51.034;5.262;2023-08-12T12:28:37;27.40;64.10
12839;DHT22;6486;51.034;5.262;2023-08-12T12:31:03;27.50;63.80
12839;DHT22;6486;51.034;5.262;2023-08-12T12:33:29;27.60;63.90
12839;DHT22;6486;51.034;5.262;2023-08-12T12:35:55;27.70;64.00
12839;DHT22;6486;51.034;5.262;2023-08-12T12:38:20;27.50;63.80
12839;DHT22;6486;51.034;5.262;2023-08-12T12:40:47;27.40;63.80
12839;DHT22;6486;51.034;5.262;2023-08-12T12:43:12;27.60;63.80
12839;DHT22;6486;51.034;5.262;2023-08-12T12:45:38;27.60;63.50
12839;DHT22;6486;51.034;5.262;2023-08-12T12:48:04;27.70;62.80
12839;DHT22;6486;51.034;5.262;2023-08-12T12:50:29;27.90;61.90
12839;DHT22;6486;51.034;5.262;2023-08-12T12:52:55;28.10;61.90
12839;DHT22;6486;51.034;5.262;2023-08-12T12:55:21;28.20;60.70
12839;DHT22;6486;51.034;5.262;2023-08-12T12:57:46;28.30;60.60
12839;DHT22;6486;51.034;5.262;2023-08-12T13:00:12;28.40;58.20
12839;DHT22;6486;51.034;5.262;2023-08-12T13:02:38;28.40;57.90
12839;DHT22;6486;51.034;5.262;2023-08-12T13:05:04;28.30;58.40
12839;DHT22;6486;51.034;5.262;2023-08-12T13:07:29;28.10;57.50
12839;DHT22;6486;51.034;5.262;2023-08-12T13:09:55;28.10;57.30
12839;DHT22;6486;51.034;5.262;2023-08-12T13:12:21;28.00;57.40
12839;DHT22;6486;51.034;5.262;2023-08-12T13:14:47;28.10;57.80
12839;DHT22;6486;51.034;5.262;2023-08-12T13:17:12;28.00;58.00
12839;DHT22;6486;51.034;5.262;2023-08-12T13:19:38;28.00;57.80
12839;DHT22;6486;51.034;5.262;2023-08-12T13:22:04;27.90;58.00
12839;DHT22;6486;51.034;5.262;2023-08-12T13:24:29;27.90;57.80
12839;DHT22;6486;51.034;5.262;2023-08-12T13:26:55;27.90;57.80
12839;DHT22;6486;51.034;5.262;2023-08-12T13:29:21;28.00;58.30
12839;DHT22;6486;51.034;5.262;2023-08-12T13:31:46;28.20;58.50
12839;DHT22;6486;51.034;5.262;2023-08-12T13:34:12;28.30;59.20
12839;DHT22;6486;51.034;5.262;2023-08-12T13:36:37;28.30;58.50
12839;DHT22;6486;51.034;5.262;2023-08-12T13:39:03;28.20;58.40
12839;DHT22;6486;51.034;5.262;2023-08-12T13:41:29;28.20;57.90
12839;DHT22;6486;51.034;5.262;2023-08-12T13:43:55;28.20;57.70
12839;DHT22;6486;51.034;5.262;2023-08-12T13:46:20;28.10;57.30
12839;DHT22;6486;51.034;5.262;2023-08-12T13:48:46;28.10;56.70
12839;DHT22;6486;51.034;5.262;2023-08-12T13:51:11;28.20;56.60
12839;DHT22;6486;51.034;5.262;2023-08-12T13:53:37;28.30;56.60
12839;DHT22;6486;51.034;5.262;2023-08-12T13:56:03;28.50;56.40
12839;DHT22;6486;51.034;5.262;2023-08-12T13:58:29;28.70;56.00
12839;DHT22;6486;51.034;5.262;2023-08-12T14:00:55;28.80;55.20
12839;DHT22;6486;51.034;5.262;2023-08-12T14:03:20;28.90;55.30
12839;DHT22;6486;51.034;5.262;2023-08-12T14:05:46;28.90;55.40
12839;DHT22;6486;51.034;5.262;2023-08-12T14:08:11;28.70;55.20
12839;DHT22;6486;51.034;5.262;2023-08-12T14:10:37;28.50;54.90
12839;DHT22;6486;51.034;5.262;2023-08-12T14:13:03;28.40;55.30
12839;DHT22;6486;51.034;5.262;2023-08-12T14:15:28;28.20;55.70
12839;DHT22;6486;51.034;5.262;2023-08-12T14:17:54;28.00;56.00
12839;DHT22;6486;51.034;5.262;2023-08-12T14:20:20;28.00;55.90
12839;DHT22;6486;51.034;5.262;2023-08-12T14:22:45;28.00;56.10
12839;DHT22;6486;51.034;5.262;2023-08-12T14:25:11;27.90;56.10
12839;DHT22;6486;51.034;5.262;2023-08-12T14:27:37;28.00;56.30
12839;DHT22;6486;51.034;5.262;2023-08-12T14:30:03;28.20;56.10
12839;DHT22;6486;51.034;5.262;2023-08-12T14:32:28;28.30;55.50
12839;DHT22;6486;51.034;5.262;2023-08-12T14:34:54;28.10;55.30
12839;DHT22;6486;51.034;5.262;2023-08-12T14:37:20;27.90;55.40
12839;DHT22;6486;51.034;5.262;2023-08-12T14:39:46;27.70;55.30
12839;DHT22;6486;51.034;5.262;2023-08-12T14:42:11;27.80;54.90
12839;DHT22;6486;51.034;5.262;2023-08-12T14:44:37;27.80;54.80
12839;DHT22;6486;51.034;5.262;2023-08-12T14:47:03;27.90;54.50
12839;DHT22;6486;51.034;5.262;2023-08-12T14:49:29;28.00;54.80
12839;DHT22;6486;51.034;5.262;2023-08-12T14:51:55;28.20;54.70
12839;DHT22;6486;51.034;5.262;2023-08-12T14:54:22;28.30;54.40
12839;DHT22;6486;51.034;5.262;2023-08-12T14:56:48;28.50;53.70
12839;DHT22;6486;51.034;5.262;2023-08-12T14:59:14;28.60;52.50
12839;DHT22;6486;51.034;5.262;2023-08-12T15:01:39;28.70;51.90
12839;DHT22;6486;51.034;5.262;2023-08-12T15:04:05;28.70;52.10
12839;DHT22;6486;51.034;5.262;2023-08-12T15:06:31;28.70;52.30
12839;DHT22;6486;51.034;5.262;2023-08-12T15:08:56;28.70;52.20
12839;DHT22;6486;51.034;5.262;2023-08-12T15:11:22;28.60;52.40
12839;DHT22;6486;51.034;5.262;2023-08-12T15:13:49;28.40;52.10
12839;DHT22;6486;51.034;5.262;2023-08-12T15:16:14;28.10;51.80
12839;DHT22;6486;51.034;5.262;2023-08-12T15:18:40;28.00;51.70
12839;DHT22;6486;51.034;5.262;2023-08-12T15:21:08;27.90;52.30
12839;DHT22;6486;51.034;5.262;2023-08-12T15:23:34;28.10;52.00
12839;DHT22;6486;51.034;5.262;2023-08-12T15:26:01;28.20;50.40
12839;DHT22;6486;51.034;5.262;2023-08-12T15:28:28;28.10;50.80
12839;DHT22;6486;51.034;5.262;2023-08-12T15:30:54;28.30;51.10
12839;DHT22;6486;51.034;5.262;2023-08-12T15:33:20;28.60;51.40
12839;DHT22;6486;51.034;5.262;2023-08-12T15:35:46;28.80;51.20
12839;DHT22;6486;51.034;5.262;2023-08-12T15:38:12;28.70;50.50
12839;DHT22;6486;51.034;5.262;2023-08-12T15:40:37;28.70;50.60
12839;DHT22;6486;51.034;5.262;2023-08-12T15:43:06;28.60;50.60